Time;durP1;ratioP1;P1;durP2;ratioP2;P2;SDS_P1;SDS_P2;PMS_P1;PMS_P2;Temp;Humidity;BMP_temperature;BMP_pressure;BME280_temperature;BME280_humidity;BME280_pressure;Samples;Min_cycle;Max_cycle;Signal;HPM_P1;HPM_P2
2023/01/26 00:00:29;;;;;;;23.90;14.18;;;2.00;99.90;;;;;;5032061;28;20159;-53
2023/01/26 00:02:55;;;;;;;29.70;16.05;;;2.10;99.90;;;;;;5030106;28;20101;-51
2023/01/26 00:05:20;;;;;;;28.38;14.90;;;2.00;99.90;;;;;;5031285;28;20501;-51
2023/01/26 00:07:46;;;;;;;25.42;15.63;;;2.00;99.90;;;;;;5032887;28;20037;-50
2023/01/26 00:10:11;;;;;;;27.30;15.82;;;2.00;99.90;;;;;;5032586;28;20088;-54
2023/01/26 00:12:37;;;;;;;26.65;15.05;;;2.00;99.90;;;;;;5031857;28;20033;-50
2023/01/26 00:15:03;;;;;;;27.90;15.90;;;1.90;99.90;;;;;;5032431;28;20030;-54
2023/01/26 00:17:29;;;;;;;25.73;14.75;;;1.90;99.90;;;;;;5032365;28;20489;-56
2023/01/26 00:19:56;;;;;;;28.75;15.48;;;1.90;99.90;;;;;;5032640;28;20065;-52
2023/01/26 00:22:23;;;;;;;26.02;15.63;;;1.90;99.90;;;;;;5031520;28;20068;-48
2023/01/26 00:24:48;;;;;;;26.45;14.38;;;1.80;99.90;;;;;;5032033;28;20427;-49
2023/01/26 00:27:14;;;;;;;27.80;14.18;;;1.80;99.90;;;;;;5033227;28;20029;-54
2023/01/26 00:29:41;;;;;;;25.55;15.27;;;1.80;99.90;;;;;;5032376;28;20054;-50
2023/01/26 00:32:06;;;;;;;28.77;15.98;;;1.60;99.90;;;;;;5030214;28;20029;-50
2023/01/26 00:34:32;;;;;;;28.38;15.95;;;1.60;99.90;;;;;;5032298;28;20052;-52
2023/01/26 00:36:57;;;;;;;27.77;15.75;;;1.50;99.90;;;;;;5031483;28;20092;-50
2023/01/26 00:39:22;;;;;;;28.85;14.02;;;1.40;99.90;;;;;;5032246;28;20026;-50
2023/01/26 00:42:08;;;;;;;24.13;13.02;;;1.40;99.90;;;;;;5031789;28;20030;-52
2023/01/26 00:44:34;;;;;;;27.50;15.93;;;1.40;99.90;;;;;;5032101;28;20026;-50
2023/01/26 00:47:00;;;;;;;27.08;13.55;;;1.40;99.90;;;;;;5031739;28;20065;-52
2023/01/26 00:49:25;;;;;;;29.25;15.00;;;1.30;99.90;;;;;;5032063;28;20068;-50
2023/01/26 00:51:51;;;;;;;25.88;15.68;;;1.40;99.90;;;;;;5031977;28;20496;-53
2023/01/26 00:54:16;;;;;;;27.90;16.10;;;1.30;99.90;;;;;;5032019;28;20021;-54
2023/01/26 00:56:42;;;;;;;29.33;14.90;;;1.40;99.90;;;;;;5031933;28;20429;-52
2023/01/26 00:59:07;;;;;;;27.90;14.27;;;1.50;99.90;;;;;;5032449;28;20029;-49
2023/01/26 01:01:33;;;;;;;27.38;15.15;;;1.50;99.90;;;;;;5032280;28;20045;-52
2023/01/26 01:03:59;;;;;;;26.45;14.50;;;1.60;99.90;;;;;;5030044;28;20025;-53
2023/01/26 01:06:24;;;;;;;27.70;15.73;;;1.60;99.90;;;;;;5031804;28;20189;-52
2023/01/26 01:08:50;;;;;;;34.97;16.60;;;1.70;99.90;;;;;;5031716;28;20079;-53
2023/01/26 01:11:15;;;;;;;28.08;14.57;;;1.70;99.90;;;;;;5031589;28;20109;-54
2023/01/26 01:13:41;;;;;;;31.35;15.05;;;1.80;99.90;;;;;;5029563;28;20570;-48
2023/01/26 01:16:10;;;;;;;28.50;15.32;;;1.80;99.90;;;;;;5031504;28;20037;-49
2023/01/26 01:18:36;;;;;;;31.23;17.10;;;1.90;99.90;;;;;;5031528;28;20022;-50
2023/01/26 01:21:10;;;;;;;30.77;16.15;;;2.00;99.90;;;;;;5031614;28;20393;-50
2023/01/26 01:23:36;;;;;;;29.92;16.90;;;2.10;99.90;;;;;;5030751;28;20071;-51
2023/01/26 01:26:03;;;;;;;34.40;18.00;;;2.10;99.90;;;;;;5031358;28;20034;-50
2023/01/26 01:28:28;;;;;;;29.85;16.20;;;2.10;99.90;;;;;;5031219;28;20087;-57
2023/01/26 01:30:54;;;;;;;28.42;16.08;;;2.10;99.90;;;;;;5030301;28;20025;-52
2023/01/26 01:33:21;;;;;;;30.42;17.83;;;2.00;99.90;;;;;;5030542;28;20104;-50
2023/01/26 01:35:56;;;;;;;30.33;16.70;;;2.00;99.90;;;;;;5031319;28;20084;-50
2023/01/26 01:38:21;;;;;;;30.55;17.40;;;2.00;99.90;;;;;;5031262;28;20075;-48
2023/01/26 01:40:47;;;;;;;32.42;17.92;;;2.00;99.90;;;;;;5031374;28;20029;-52
2023/01/26 01:43:12;;;;;;;36.17;18.27;;;2.00;99.90;;;;;;5030422;28;20029;-54
2023/01/26 01:45:44;;;;;;;37.17;18.52;;;2.00;99.90;;;;;;5031077;28;20034;-51
2023/01/26 01:48:24;;;;;;;33.25;18.30;;;2.00;99.90;;;;;;5033954;28;20025;-51
2023/01/26 01:50:53;;;;;;;36.70;18.13;;;2.00;99.90;;;;;;5035216;28;20041;-54
2023/01/26 01:53:24;;;;;;;40.42;20.08;;;2.10;99.90;;;;;;5034513;28;20029;-53
2023/01/26 01:55:54;;;;;;;36.92;18.55;;;2.10;99.90;;;;;;5035078;28;20022;-53
2023/01/26 01:58:20;;;;;;;36.00;18.08;;;2.20;99.90;;;;;;5033904;28;20389;-54
2023/01/26 02:00:46;;;;;;;40.35;19.90;;;2.10;99.90;;;;;;5035252;28;20393;-54
2023/01/26 02:03:14;;;;;;;44.72;20.95;;;2.00;99.90;;;;;;5033395;28;20025;-50
2023/01/26 02:05:43;;;;;;;35.35;17.65;;;2.00;99.90;;;;;;5034644;28;20025;-51
2023/01/26 02:08:12;;;;;;;32.88;17.02;;;1.90;99.90;;;;;;5034997;28;20090;-51
2023/01/26 02:10:37;;;;;;;29.55;16.27;;;1.80;99.90;;;;;;5034904;28;20052;-50
2023/01/26 02:13:05;;;;;;;33.78;16.95;;;1.80;99.90;;;;;;5034097;28;20485;-50
2023/01/26 02:15:30;;;;;;;25.73;15.75;;;1.90;99.90;;;;;;5033423;28;20124;-51
2023/01/26 02:18:02;;;;;;;31.80;17.25;;;1.80;99.90;;;;;;5034948;28;20095;-50
2023/01/26 02:20:35;;;;;;;24.88;14.38;;;1.90;99.90;;;;;;5035254;28;20064;-49
2023/01/26 02:23:12;;;;;;;25.85;12.77;;;1.80;99.90;;;;;;5034175;28;20026;-49
2023/01/26 02:25:37;;;;;;;22.02;11.77;;;1.70;99.90;;;;;;5033282;28;20028;-49
2023/01/26 02:28:03;;;;;;;22.42;11.70;;;1.70;99.90;;;;;;5034693;28;20033;-52
2023/01/26 02:30:31;;;;;;;21.05;12.23;;;1.60;99.90;;;;;;5034460;28;20532;-50
2023/01/26 02:32:57;;;;;;;25.90;13.63;;;1.60;99.90;;;;;;5032556;28;20021;-50
2023/01/26 02:35:22;;;;;;;29.52;15.02;;;1.50;99.90;;;;;;5033023;28;20018;-53
2023/01/26 02:37:48;;;;;;;23.05;14.20;;;1.60;99.90;;;;;;5033249;28;20401;-53
2023/01/26 02:40:31;;;;;;;26.95;15.43;;;1.60;99.90;;;;;;5034340;28;20401;-49
2023/01/26 02:42:56;;;;;;;24.23;13.48;;;1.70;99.90;;;;;;5033879;28;20440;-48
2023/01/26 02:45:23;;;;;;;22.15;12.82;;;1.70;99.90;;;;;;5034096;28;20075;-52
2023/01/26 02:47:49;;;;;;;22.17;13.20;;;1.60;99.90;;;;;;5034382;28;20421;-49
2023/01/26 02:50:15;;;;;;;22.60;12.82;;;1.60;99.90;;;;;;5034087;28;20025;-49
2023/01/26 02:52:41;;;;;;;22.88;13.30;;;1.60;99.90;;;;;;5032130;28;20021;-52
2023/01/26 02:55:23;;;;;;;23.73;12.98;;;1.40;99.90;;;;;;5034154;28;20554;-51
2023/01/26 02:57:54;;;;;;;18.30;11.15;;;1.40;99.90;;;;;;5032833;28;20052;-49
2023/01/26 03:00:31;;;;;;;17.85;9.95;;;1.30;99.90;;;;;;5033308;28;20447;-51
2023/01/26 03:02:59;;;;;;;16.13;9.93;;;1.20;99.90;;;;;;5030991;28;20033;-53
2023/01/26 03:05:26;;;;;;;17.80;10.98;;;1.20;99.90;;;;;;5032473;28;20397;-52
2023/01/26 03:07:52;;;;;;;18.73;12.65;;;1.20;99.90;;;;;;5033885;28;20064;-51
2023/01/26 03:10:17;;;;;;;18.38;10.57;;;1.20;99.90;;;;;;5033793;28;20690;-53
2023/01/26 03:12:44;;;;;;;15.13;10.48;;;1.20;99.90;;;;;;5033159;28;20029;-51
2023/01/26 03:29:04;;;;;;;14.15;8.50;;;1.50;99.90;;;;;;5033460;28;20036;-54
2023/01/26 03:31:30;;;;;;;15.75;8.82;;;1.50;99.90;;;;;;5033426;28;20030;-50
2023/01/26 03:33:55;;;;;;;11.85;8.23;;;1.60;99.90;;;;;;5032711;28;20026;-51
2023/01/26 03:36:20;;;;;;;13.85;8.65;;;1.60;99.90;;;;;;5033165;28;20067;-54
2023/01/26 03:38:46;;;;;;;11.23;8.07;;;1.60;99.90;;;;;;5032043;28;20485;-54
2023/01/26 03:57:36;;;;;;;12.50;5.97;;;1.60;99.90;;;;;;5033253;28;20037;-51
2023/01/26 04:00:02;;;;;;;11.75;6.03;;;1.60;99.90;;;;;;5032941;28;20493;-52
2023/01/26 04:08:23;;;;;;;11.88;6.75;;;1.80;99.90;;;;;;5033240;28;20041;-52
2023/01/26 04:10:53;;;;;;;8.65;5.82;;;1.70;99.90;;;;;;5031338;28;20083;-51
2023/01/26 04:21:35;;;;;;;8.00;5.65;;;1.60;99.90;;;;;;5032411;28;20031;-48
2023/01/26 04:24:08;;;;;;;6.18;5.03;;;1.70;99.90;;;;;;5031884;28;20034;-48
2023/01/26 04:26:35;;;;;;;6.70;4.90;;;1.70;99.90;;;;;;5032618;28;20053;-52
2023/01/26 04:29:05;;;;;;;8.43;5.70;;;1.70;99.90;;;;;;5032251;28;20116;-50
2023/01/26 04:31:31;;;;;;;7.18;5.18;;;1.70;99.90;;;;;;5032318;28;20063;-53
2023/01/26 04:33:58;;;;;;;8.02;5.70;;;1.70;99.90;;;;;;5030530;28;20308;-49
2023/01/26 04:36:24;;;;;;;5.40;4.50;;;1.70;99.90;;;;;;5032106;28;20028;-51
2023/01/26 04:38:49;;;;;;;5.70;4.65;;;1.70;99.90;;;;;;5032238;28;20425;-52
2023/01/26 04:41:15;;;;;;;4.75;4.28;;;1.70;99.90;;;;;;5032220;28;20097;-50
2023/01/26 04:43:40;;;;;;;4.85;4.15;;;1.80;99.90;;;;;;5031496;28;20538;-51
2023/01/26 04:46:07;;;;;;;5.30;4.15;;;1.80;99.90;;;;;;5032341;28;20108;-48
2023/01/26 04:48:33;;;;;;;4.15;3.40;;;1.70;99.90;;;;;;5031915;28;20064;-53
2023/01/26 04:51:20;;;;;;;4.28;3.85;;;1.80;99.90;;;;;;5031914;28;20497;-51
2023/01/26 04:53:47;;;;;;;4.82;3.67;;;1.80;99.90;;;;;;5030825;28;20276;-52
2023/01/26 04:56:26;;;;;;;4.88;3.85;;;1.80;99.90;;;;;;5030546;28;20061;-56
2023/01/26 04:58:53;;;;;;;3.95;3.53;;;1.80;99.90;;;;;;5031845;28;20509;-51
2023/01/26 05:01:19;;;;;;;5.72;4.05;;;1.70;99.90;;;;;;5031755;28;20452;-52
2023/01/26 05:03:45;;;;;;;4.57;3.88;;;1.70;99.90;;;;;;5030136;28;20553;-54
2023/01/26 05:06:11;;;;;;;4.40;3.95;;;1.80;99.90;;;;;;5031598;28;20129;-55
2023/01/26 05:08:37;;;;;;;4.45;3.80;;;1.80;99.90;;;;;;5031630;28;20105;-48
2023/01/26 05:11:03;;;;;;;3.78;3.38;;;1.90;99.90;;;;;;5031813;28;20032;-52
2023/01/26 05:13:28;;;;;;;5.25;3.88;;;1.90;99.90;;;;;;5030901;28;20030;-50
2023/01/26 05:15:54;;;;;;;7.85;5.50;;;1.90;99.90;;;;;;5031575;28;20071;-53
2023/01/26 05:18:19;;;;;;;8.63;4.50;;;1.90;99.90;;;;;;5031742;28;20435;-48
2023/01/26 05:20:45;;;;;;;6.18;4.65;;;1.80;99.90;;;;;;5031902;28;20041;-53
2023/01/26 05:23:10;;;;;;;5.45;4.85;;;1.70;99.90;;;;;;5030822;28;20029;-45
2023/01/26 05:25:36;;;;;;;5.28;4.57;;;1.80;99.90;;;;;;5030272;28;20022;-51
2023/01/26 05:28:01;;;;;;;5.70;4.28;;;1.60;99.90;;;;;;5032097;28;20097;-50
2023/01/26 05:30:27;;;;;;;5.32;4.72;;;1.80;99.90;;;;;;5032010;28;20029;-54
2023/01/26 05:32:52;;;;;;;5.85;5.00;;;1.60;99.90;;;;;;5030974;28;20029;-51
2023/01/26 05:35:18;;;;;;;7.57;4.90;;;1.60;99.90;;;;;;5030269;28;20121;-49
2023/01/26 05:37:44;;;;;;;6.45;4.70;;;1.60;99.90;;;;;;5031538;28;20026;-53
2023/01/26 05:40:11;;;;;;;6.30;4.80;;;1.60;99.90;;;;;;5031611;28;20449;-52
2023/01/26 05:42:37;;;;;;;7.80;5.32;;;1.60;99.90;;;;;;5029596;28;20029;-55
2023/01/26 05:45:03;;;;;;;6.10;4.90;;;1.60;99.90;;;;;;5031718;28;20489;-56
2023/01/26 05:47:29;;;;;;;7.28;5.22;;;1.60;99.90;;;;;;5031525;28;20501;-54
2023/01/26 05:49:54;;;;;;;7.28;5.07;;;1.70;99.90;;;;;;5031554;28;20308;-54
2023/01/26 05:52:21;;;;;;;5.45;4.53;;;1.60;99.90;;;;;;5030761;28;20017;-55
2023/01/26 05:54:47;;;;;;;7.95;5.32;;;1.70;99.90;;;;;;5031532;28;20028;-52
2023/01/26 05:57:13;;;;;;;5.50;4.68;;;1.80;99.90;;;;;;5031340;28;20489;-52
2023/01/26 05:59:38;;;;;;;8.55;5.63;;;1.70;99.90;;;;;;5030004;28;20508;-48
2023/01/26 06:02:04;;;;;;;7.88;6.00;;;1.80;99.90;;;;;;5030521;28;20060;-52
2023/01/26 06:04:30;;;;;;;9.40;5.40;;;1.80;99.90;;;;;;5030060;28;20029;-54
2023/01/26 06:06:57;;;;;;;6.90;5.32;;;1.80;99.90;;;;;;5031194;28;20485;-52
2023/01/26 06:09:23;;;;;;;9.05;5.85;;;1.80;99.90;;;;;;5031606;28;20029;-52
2023/01/26 06:11:49;;;;;;;11.25;7.03;;;1.70;99.90;;;;;;5031620;28;20168;-51
2023/01/26 06:14:15;;;;;;;12.00;8.25;;;1.70;99.90;;;;;;5031168;28;20040;-54
2023/01/26 06:16:41;;;;;;;12.70;8.50;;;1.80;99.90;;;;;;5031269;28;20025;-53
2023/01/26 06:19:08;;;;;;;11.63;7.93;;;1.70;99.90;;;;;;5031203;28;20104;-52
2023/01/26 06:21:34;;;;;;;10.45;7.85;;;1.80;99.90;;;;;;5031125;28;20401;-51
2023/01/26 06:24:00;;;;;;;9.35;6.82;;;1.80;99.90;;;;;;5030453;28;20025;-54
2023/01/26 06:26:25;;;;;;;8.32;6.20;;;1.80;99.90;;;;;;5053651;23;20025;-58
2023/01/26 06:28:52;;;;;;;8.27;6.00;;;1.70;99.90;;;;;;5009096;28;20050;-56
2023/01/26 06:31:19;;;;;;;7.90;5.88;;;1.70;99.90;;;;;;5011184;28;20022;-51
2023/01/26 06:33:44;;;;;;;8.07;6.07;;;1.70;99.90;;;;;;5009426;28;20030;-53
2023/01/26 06:36:14;;;;;;;8.35;5.88;;;1.70;99.90;;;;;;5014708;28;20026;-50
2023/01/26 06:38:47;;;;;;;8.50;6.32;;;1.60;99.90;;;;;;5013402;28;20026;-49
2023/01/26 06:41:14;;;;;;;8.93;6.82;;;1.60;99.90;;;;;;5014611;28;20037;-52
2023/01/26 06:43:46;;;;;;;12.80;6.07;;;1.60;99.90;;;;;;5012534;28;20025;-54
2023/01/26 06:46:13;;;;;;;13.30;7.63;;;1.60;99.90;;;;;;5014633;28;20014;-56
2023/01/26 06:48:38;;;;;;;11.77;8.13;;;1.60;99.90;;;;;;5014354;28;20393;-53
2023/01/26 06:51:24;;;;;;;11.02;7.72;;;1.60;99.90;;;;;;5014627;28;20022;-51
2023/01/26 06:53:54;;;;;;;11.20;7.72;;;1.60;99.90;;;;;;5013393;28;20026;-46
2023/01/26 06:56:21;;;;;;;14.18;9.55;;;1.70;99.90;;;;;;5014385;28;20026;-50
2023/01/26 06:58:47;;;;;;;14.25;9.70;;;1.70;99.90;;;;;;5014352;28;20426;-52
2023/01/26 07:01:16;;;;;;;13.45;9.38;;;1.80;99.90;;;;;;5014563;28;20033;-55
2023/01/26 07:03:42;;;;;;;13.82;9.35;;;1.80;99.90;;;;;;5010467;28;20018;-51
2023/01/26 07:06:10;;;;;;;14.90;9.52;;;1.80;99.90;;;;;;5014096;28;20040;-53
2023/01/26 07:08:36;;;;;;;12.55;9.73;;;1.70;99.90;;;;;;5012717;28;20034;-52
2023/01/26 07:11:01;;;;;;;13.23;9.43;;;1.80;99.90;;;;;;5012885;28;20048;-51
2023/01/26 07:13:27;;;;;;;15.63;10.05;;;1.80;99.90;;;;;;5013043;28;20081;-51
2023/01/26 07:16:02;;;;;;;16.55;11.80;;;1.80;99.90;;;;;;5013904;28;20108;-46
2023/01/26 07:18:28;;;;;;;;;;;1.90;99.90;;;;;;5013008;28;20032;-51
2023/01/26 07:20:53;;;;;;;16.00;9.07;;;1.80;99.90;;;;;;5013904;28;19905;-54
2023/01/26 07:23:19;;;;;;;11.90;8.02;;;1.80;99.90;;;;;;5013229;28;20221;-54
2023/01/26 07:25:44;;;;;;;13.85;10.70;;;1.70;99.90;;;;;;5013840;28;20026;-49
2023/01/26 07:28:10;;;;;;;13.77;8.95;;;1.50;99.90;;;;;;5013758;28;20101;-46
2023/01/26 07:30:36;;;;;;;14.02;9.27;;;1.40;99.90;;;;;;5013845;28;20101;-48
2023/01/26 07:33:01;;;;;;;16.25;10.93;;;1.40;99.90;;;;;;5013100;28;20522;-48
2023/01/26 07:35:28;;;;;;;13.55;8.43;;;1.30;99.90;;;;;;5013834;28;20443;-48
2023/01/26 07:37:56;;;;;;;11.20;7.93;;;1.30;99.90;;;;;;5013830;28;20398;-51
2023/01/26 07:40:22;;;;;;;12.30;8.20;;;1.20;99.90;;;;;;5013628;28;20026;-49
2023/01/26 07:42:47;;;;;;;9.52;7.53;;;1.20;99.90;;;;;;5011558;28;20029;-51
2023/01/26 07:45:13;;;;;;;13.30;8.45;;;1.10;99.90;;;;;;5011972;28;20018;-51
2023/01/26 07:47:38;;;;;;;11.32;8.48;;;1.20;99.90;;;;;;5011938;28;20119;-55
2023/01/26 07:50:06;;;;;;;14.57;8.23;;;1.30;99.90;;;;;;5013098;28;20030;-48
2023/01/26 07:52:31;;;;;;;12.90;8.02;;;1.30;99.90;;;;;;5012658;28;20033;-54
2023/01/26 07:54:57;;;;;;;16.10;8.90;;;1.30;99.90;;;;;;5013313;28;20020;-50
2023/01/26 07:57:22;;;;;;;13.18;8.48;;;1.40;99.90;;;;;;5013138;28;20032;-53
2023/01/26 07:59:48;;;;;;;12.48;8.80;;;1.50;99.90;;;;;;5013245;28;20026;-46
2023/01/26 08:02:13;;;;;;;13.55;8.90;;;1.50;99.90;;;;;;5012412;28;20037;-52
2023/01/26 08:04:39;;;;;;;12.00;8.25;;;1.50;99.90;;;;;;5011390;28;20021;-50
2023/01/26 08:07:04;;;;;;;12.05;8.80;;;1.60;99.90;;;;;;5013212;28;20030;-53
2023/01/26 08:09:30;;;;;;;11.88;8.60;;;1.50;99.90;;;;;;5011820;28;20061;-53
2023/01/26 08:11:56;;;;;;;14.00;9.65;;;1.40;99.90;;;;;;5005900;28;20031;-57
2023/01/26 08:14:22;;;;;;;14.23;9.82;;;1.60;99.90;;;;;;5010308;28;20025;-59
2023/01/26 08:16:47;;;;;;;11.80;8.73;;;1.60;99.90;;;;;;5013123;28;20363;-54
2023/01/26 08:19:13;;;;;;;11.85;8.63;;;1.60;99.90;;;;;;5013077;28;20442;-49
2023/01/26 08:21:38;;;;;;;12.60;8.80;;;1.50;99.90;;;;;;5012743;28;20030;-57
2023/01/26 08:24:05;;;;;;;11.00;8.68;;;1.40;99.90;;;;;;5010839;28;20018;-51
2023/01/26 08:26:31;;;;;;;11.15;8.23;;;1.40;99.90;;;;;;5012588;28;20025;-55
2023/01/26 08:28:57;;;;;;;10.70;8.52;;;1.40;99.90;;;;;;5009569;28;20532;-52
2023/01/26 08:31:24;;;;;;;13.90;8.40;;;1.30;99.90;;;;;;5007476;28;20025;-54
2023/01/26 08:33:51;;;;;;;14.70;9.73;;;1.40;99.90;;;;;;5011943;28;20048;-57
2023/01/26 08:36:17;;;;;;;13.50;9.13;;;1.40;99.90;;;;;;5012538;28;20042;-55
2023/01/26 08:38:43;;;;;;;13.05;8.82;;;1.40;99.90;;;;;;5012388;28;20056;-57
2023/01/26 08:41:10;;;;;;;13.65;9.63;;;1.40;99.90;;;;;;5012744;28;20426;-50
2023/01/26 08:43:35;;;;;;;15.48;9.82;;;1.50;99.90;;;;;;5011539;28;20034;-50
2023/01/26 08:46:01;;;;;;;15.90;10.00;;;1.50;99.90;;;;;;5012360;28;20030;-51
2023/01/26 08:48:29;;;;;;;14.20;9.23;;;1.60;99.90;;;;;;5012557;28;20022;-50
2023/01/26 08:50:59;;;;;;;15.57;9.88;;;1.50;99.90;;;;;;5012589;28;20034;-49
2023/01/26 08:53:25;;;;;;;15.25;9.77;;;1.50;99.90;;;;;;5011584;28;20052;-50
2023/01/26 08:55:51;;;;;;;13.07;9.95;;;1.70;99.90;;;;;;5015870;28;20120;-51
2023/01/26 08:58:17;;;;;;;14.38;11.05;;;1.60;99.90;;;;;;5018724;28;20058;-48
2023/01/26 09:00:43;;;;;;;15.43;11.23;;;1.60;99.90;;;;;;5013681;28;20061;-46
2023/01/26 09:03:08;;;;;;;14.63;10.95;;;1.50;99.90;;;;;;5010678;28;20057;-55
2023/01/26 09:05:36;;;;;;;16.55;11.30;;;1.60;99.90;;;;;;5012927;28;20112;-47
2023/01/26 09:08:03;;;;;;;17.88;11.98;;;1.60;99.90;;;;;;5012139;28;20030;-51
2023/01/26 09:10:29;;;;;;;19.10;12.80;;;1.60;99.90;;;;;;5012106;28;20397;-53
2023/01/26 09:12:56;;;;;;;14.57;10.30;;;1.40;99.90;;;;;;5011275;28;20033;-56
2023/01/26 09:15:22;;;;;;;14.95;10.15;;;1.30;99.90;;;;;;5012311;28;20409;-50
2023/01/26 09:17:48;;;;;;;13.85;7.95;;;1.10;99.90;;;;;;5012506;28;20022;-50
2023/01/26 09:20:14;;;;;;;12.88;8.57;;;1.00;99.90;;;;;;5013069;28;20022;-49
2023/01/26 09:22:40;;;;;;;12.43;8.60;;;0.90;99.90;;;;;;5010904;28;20105;-54
2023/01/26 09:25:06;;;;;;;12.43;8.15;;;0.90;99.90;;;;;;5011079;28;20037;-60
2023/01/26 09:27:31;;;;;;;15.48;8.05;;;0.80;99.90;;;;;;5011539;28;20442;-50
2023/01/26 09:29:57;;;;;;;11.05;8.05;;;0.70;99.90;;;;;;5010058;28;20112;-50
2023/01/26 09:32:22;;;;;;;16.95;9.10;;;0.80;99.90;;;;;;5012179;28;20556;-50
2023/01/26 09:34:48;;;;;;;13.70;9.73;;;0.90;99.90;;;;;;5012351;28;20030;-47
2023/01/26 09:37:14;;;;;;;12.50;8.63;;;0.80;99.90;;;;;;5012294;28;20026;-51
2023/01/26 09:39:40;;;;;;;13.43;8.48;;;0.70;99.90;;;;;;5012773;28;20065;-53
2023/01/26 09:42:38;;;;;;;12.85;8.27;;;0.70;99.90;;;;;;5010345;28;20062;-51
2023/01/26 09:45:12;;;;;;;12.45;8.55;;;0.50;99.90;;;;;;5010255;28;20022;-50
2023/01/26 09:48:12;;;;;;;12.98;9.50;;;0.60;99.90;;;;;;5012084;28;20050;-53
2023/01/26 09:50:50;;;;;;;17.50;8.02;;;0.60;99.90;;;;;;5011198;28;20648;-49
2023/01/26 09:53:39;;;;;;;11.15;8.48;;;0.60;99.90;;;;;;5009878;28;20505;-52
2023/01/26 09:56:05;;;;;;;14.82;9.20;;;0.60;99.90;;;;;;5011225;28;20041;-55
2023/01/26 09:58:34;;;;;;;12.63;8.57;;;0.60;99.90;;;;;;5011232;28;20309;-52
2023/01/26 10:01:02;;;;;;;9.77;7.95;;;0.60;99.90;;;;;;5011443;28;20030;-52
2023/01/26 10:03:34;;;;;;;10.00;7.90;;;0.70;99.90;;;;;;5011064;28;20022;-54
2023/01/26 10:06:14;;;;;;;12.45;8.38;;;0.70;99.90;;;;;;5011629;28;20028;-53
2023/01/26 10:08:42;;;;;;;11.57;8.25;;;0.90;99.90;;;;;;5013133;28;20021;-51
2023/01/26 10:11:20;;;;;;;8.13;6.93;;;0.80;99.90;;;;;;5015519;28;20029;-53
2023/01/26 10:13:56;;;;;;;18.45;7.32;;;0.80;99.90;;;;;;5014461;28;20101;-55
2023/01/26 10:16:23;;;;;;;10.90;7.97;;;0.70;99.90;;;;;;5015077;28;20033;-59
2023/01/26 10:18:54;;;;;;;13.63;9.05;;;0.60;99.90;;;;;;5015128;28;20018;-58
2023/01/26 10:21:27;;;;;;;12.80;8.68;;;0.60;99.90;;;;;;5015241;28;20037;-56
2023/01/26 10:23:54;;;;;;;8.80;6.72;;;0.70;99.90;;;;;;5014538;28;20028;-55
2023/01/26 10:26:21;;;;;;;11.45;8.00;;;0.80;99.90;;;;;;5015182;28;20021;-56
2023/01/26 10:28:49;;;;;;;12.63;7.93;;;0.80;99.90;;;;;;5014951;28;20112;-48
2023/01/26 10:31:16;;;;;;;9.05;7.03;;;0.80;99.90;;;;;;5015319;28;20170;-55
2023/01/26 10:33:54;;;;;;;11.32;8.10;;;0.70;99.90;;;;;;5014286;28;20018;-54
2023/01/26 10:36:20;;;;;;;10.15;6.65;;;;;;;;;;5013273;28;20072;-55
2023/01/26 10:38:47;;;;;;;9.82;7.38;;;0.50;99.90;;;;;;5014601;28;20018;-55
2023/01/26 10:41:18;;;;;;;11.30;6.75;;;0.60;99.90;;;;;;5014738;28;20447;-55
2023/01/26 10:44:01;;;;;;;12.25;7.38;;;0.60;99.90;;;;;;5014076;28;20049;-52
2023/01/26 10:46:38;;;;;;;12.90;7.63;;;0.70;99.90;;;;;;5014708;28;20145;-60
2023/01/26 10:49:13;;;;;;;10.70;7.55;;;0.70;99.90;;;;;;5014406;28;20070;-58
2023/01/26 10:51:43;;;;;;;10.65;7.90;;;0.70;99.90;;;;;;5006353;28;20014;-56
2023/01/26 10:54:35;;;;;;;14.10;7.75;;;0.80;99.90;;;;;;5011262;28;20026;-57
2023/01/26 10:57:25;;;;;;;11.05;7.22;;;0.80;99.90;;;;;;5013800;28;20034;-55
2023/01/26 10:59:57;;;;;;;13.73;8.68;;;0.70;99.90;;;;;;5019254;28;20121;-52
2023/01/26 11:02:29;;;;;;;15.90;9.38;;;0.70;99.90;;;;;;5012099;28;20041;-55
2023/01/26 11:05:06;;;;;;;17.55;9.30;;;0.60;99.90;;;;;;5014376;28;20022;-54
2023/01/26 11:07:38;;;;;;;16.08;9.68;;;0.80;99.90;;;;;;5012623;28;20054;-59
2023/01/26 11:10:32;;;;;;;18.95;9.30;;;0.80;99.90;;;;;;5013924;28;20056;-59
2023/01/26 11:13:15;;;;;;;13.93;9.20;;;0.80;99.90;;;;;;4991527;28;20039;-57
2023/01/26 11:15:44;;;;;;;11.93;8.30;;;0.90;99.90;;;;;;4993225;28;20030;-52
2023/01/26 11:18:31;;;;;;;11.90;7.88;;;0.60;99.90;;;;;;4993062;28;20406;-55
2023/01/26 11:20:59;;;;;;;15.43;8.73;;;0.70;99.90;;;;;;4992503;28;20027;-53
2023/01/26 11:23:38;;;;;;;13.95;8.10;;;0.80;99.90;;;;;;4993653;28;20597;-53
2023/01/26 11:26:22;;;;;;;12.88;8.77;;;0.90;99.90;;;;;;4994398;28;20034;-52
2023/01/26 11:29:17;;;;;;;16.23;8.77;;;1.00;99.90;;;;;;4994236;28;20498;-50
2023/01/26 11:32:01;;;;;;;12.43;8.70;;;0.90;99.90;;;;;;4993003;28;20483;-54
2023/01/26 11:34:32;;;;;;;12.57;8.73;;;0.90;99.90;;;;;;4994272;28;20027;-57
2023/01/26 11:36:57;;;;;;;21.00;10.75;;;0.90;99.90;;;;;;4992662;28;20027;-59
2023/01/26 11:39:46;;;;;;;13.27;8.95;;;0.90;99.90;;;;;;5005861;28;20084;-49
2023/01/26 11:42:56;;;;;;;12.00;8.73;;;0.90;99.90;;;;;;5013046;28;20048;-53
2023/01/26 11:45:46;;;;;;;17.33;10.48;;;0.90;99.90;;;;;;4952554;28;20031;-61
2023/01/26 11:48:48;;;;;;;15.57;9.82;;;0.90;99.90;;;;;;5008985;28;20046;-53
2023/01/26 11:51:26;;;;;;;14.55;9.75;;;1.00;99.90;;;;;;5010797;28;20026;-61
2023/01/26 11:54:15;;;;;;;13.18;8.52;;;1.10;99.90;;;;;;5025362;28;20025;-58
2023/01/26 11:56:56;;;;;;;13.07;10.02;;;1.20;99.90;;;;;;5033777;28;20018;-56
2023/01/26 11:59:29;;;;;;;15.60;8.00;;;1.20;99.90;;;;;;5018940;28;20041;-56
2023/01/26 12:02:10;;;;;;;14.15;8.75;;;1.10;99.90;;;;;;5013202;28;20030;-53
2023/01/26 12:04:44;;;;;;;12.70;8.25;;;1.10;99.90;;;;;;5015944;28;20049;-49
2023/01/26 12:07:16;;;;;;;12.27;8.77;;;1.10;99.90;;;;;;5010243;28;20058;-54
2023/01/26 12:09:46;;;;;;;11.13;8.02;;;1.00;99.90;;;;;;5011751;28;20067;-59
2023/01/26 12:12:26;;;;;;;13.32;8.95;;;1.10;99.90;;;;;;5014298;28;20485;-54
2023/01/26 12:15:03;;;;;;;11.15;8.00;;;1.20;99.90;;;;;;5018906;28;20058;-55
2023/01/26 12:17:49;;;;;;;16.00;8.32;;;1.20;99.90;;;;;;5009058;28;20025;-52
2023/01/26 12:20:41;;;;;;;9.57;7.03;;;1.10;99.90;;;;;;5023307;28;20048;-56
2023/01/26 12:23:24;;;;;;;11.13;8.00;;;1.10;99.90;;;;;;5021354;28;20413;-55
2023/01/26 12:25:57;;;;;;;18.02;8.23;;;1.10;99.90;;;;;;5018525;28;20394;-54
2023/01/26 12:28:40;;;;;;;13.77;8.38;;;1.10;99.90;;;;;;5018091;28;20037;-52
2023/01/26 12:31:16;;;;;;;15.32;9.27;;;1.20;99.90;;;;;;5020725;28;20113;-55
2023/01/26 12:33:42;;;;;;;12.93;9.45;;;1.30;99.90;;;;;;5018773;28;20082;-58
2023/01/26 12:36:39;;;;;;;12.02;8.27;;;1.40;99.90;;;;;;5015026;28;20045;-54
2023/01/26 12:39:28;;;;;;;23.83;12.45;;;1.50;99.90;;;;;;5013930;28;20068;-53
2023/01/26 12:42:26;;;;;;;35.80;20.10;;;1.60;99.90;;;;;;5013011;28;20108;-53
2023/01/26 12:45:01;;;;;;;18.00;11.32;;;1.70;99.90;;;;;;5001591;28;20069;-56
2023/01/26 12:47:35;;;;;;;13.45;9.10;;;1.70;99.90;;;;;;5011852;28;20482;-60
2023/01/26 12:50:03;;;;;;;12.13;8.63;;;1.80;99.90;;;;;;5013279;28;20405;-52
2023/01/26 12:52:36;;;;;;;10.23;7.88;;;1.70;99.90;;;;;;5012974;28;20392;-60
2023/01/26 12:55:18;;;;;;;12.40;6.93;;;1.70;99.90;;;;;;5013753;28;20076;-55
2023/01/26 12:57:54;;;;;;;11.32;8.13;;;1.50;99.90;;;;;;5013811;28;20026;-55
2023/01/26 13:00:28;;;;;;;14.57;8.73;;;1.50;99.90;;;;;;5013768;28;20037;-52
2023/01/26 13:03:23;;;;;;;10.80;7.60;;;1.50;99.90;;;;;;5012833;28;20045;-56
2023/01/26 13:06:17;;;;;;;11.77;8.25;;;1.40;99.90;;;;;;5014344;28;20608;-56
2023/01/26 13:09:18;;;;;;;10.82;7.50;;;1.30;99.90;;;;;;5020495;28;20089;-51
2023/01/26 13:11:47;;;;;;;11.75;8.38;;;1.20;99.90;;;;;;4981353;28;20038;-59
2023/01/26 13:14:35;;;;;;;10.65;8.00;;;1.30;99.90;;;;;;5004245;28;20030;-51
2023/01/26 13:17:15;;;;;;;9.27;7.45;;;1.40;99.90;;;;;;5015068;28;20041;-53
2023/01/26 13:19:41;;;;;;;11.82;7.78;;;1.40;99.90;;;;;;4996159;28;20053;-57
2023/01/26 13:22:24;;;;;;;12.05;7.75;;;1.10;99.90;;;;;;4994688;28;20030;-55
2023/01/26 13:24:56;;;;;;;12.25;8.60;;;1.00;99.90;;;;;;5011308;28;20041;-50
2023/01/26 13:27:45;;;;;;;13.77;8.50;;;1.00;99.90;;;;;;5013107;28;20406;-55
2023/01/26 13:30:26;;;;;;;11.07;7.45;;;0.80;99.90;;;;;;5014906;28;20025;-52
2023/01/26 13:33:00;;;;;;;13.30;8.25;;;0.70;99.90;;;;;;5014743;28;20062;-49
2023/01/26 13:35:25;;;;;;;11.68;8.00;;;0.70;99.90;;;;;;5014074;28;20089;-55
2023/01/26 13:38:39;;;;;;;14.75;8.45;;;0.70;99.90;;;;;;5012526;28;20037;-60
2023/01/26 13:41:19;;;;;;;12.95;8.52;;;0.70;99.90;;;;;;5002676;28;20030;-51
2023/01/26 13:44:05;;;;;;;14.10;8.13;;;0.80;99.90;;;;;;5011106;28;20493;-57
2023/01/26 13:46:58;;;;;;;12.45;8.27;;;0.90;99.90;;;;;;5012063;28;20026;-57